sensor_id;sensor_type;location;lat;lon;timestamp;temperature;humidity
8939;DHT22;4504;48.810;9.172;2022-11-20T00:01:30;7.20;99.90
8939;DHT22;4504;48.810;9.172;2022-11-20T00:03:58;7.20;99.90
8939;DHT22;4504;48.810;9.172;2022-11-20T00:06:28;7.20;99.90
8939;DHT22;4504;48.810;9.172;2022-11-20T00:08:56;7.30;99.90
8939;DHT22;4504;48.810;9.172;2022-11-20T00:11:24;7.20;99.90
8939;DHT22;4504;48.810;9.172;2022-11-20T00:13:53;7.20;99.90
8939;DHT22;4504;48.810;9.172;2022-11-20T00:16:22;7.30;99.90
8939;DHT22;4504;48.810;9.172;2022-11-20T00:18:50;7.20;99.90
8939;DHT22;4504;48.810;9.172;2022-11-20T00:21:19;7.20;99.90
8939;DHT22;4504;48.810;9.172;2022-11-20T00:23:48;7.20;99.90
8939;DHT22;4504;48.810;9.172;2022-11-20T00:26:17;7.20;99.90
8939;DHT22;4504;48.810;9.172;2022-11-20T00:28:49;7.10;99.90
8939;DHT22;4504;48.810;9.172;2022-11-20T00:31:17;7.10;99.90
8939;DHT22;4504;48.810;9.172;2022-11-20T00:33:45;7.10;99.90
8939;DHT22;4504;48.810;9.172;2022-11-20T00:36:14;7.10;99.90
8939;DHT22;4504;48.810;9.172;2022-11-20T00:38:41;7.10;99.90
8939;DHT22;4504;48.810;9.172;2022-11-20T00:41:11;7.10;99.90
8939;DHT22;4504;48.810;9.172;2022-11-20T00:43:39;7.30;99.90
8939;DHT22;4504;48.810;9.172;2022-11-20T00:46:08;7.20;99.90
8939;DHT22;4504;48.810;9.172;2022-11-20T00:48:35;7.10;99.90
8939;DHT22;4504;48.810;9.172;2022-11-20T00:51:02;7.10;99.90
8939;DHT22;4504;48.810;9.172;2022-11-20T00:53:30;7.10;99.90
8939;DHT22;4504;48.810;9.172;2022-11-20T00:55:59;7.10;99.90
8939;DHT22;4504;48.810;9.172;2022-11-20T00:58:31;7.10;99.90
8939;DHT22;4504;48.810;9.172;2022-11-20T01:01:02;7.10;99.90
8939;DHT22;4504;48.810;9.172;2022-11-20T01:03:31;7.20;99.90
8939;DHT22;4504;48.810;9.172;2022-11-20T01:06:00;7.10;99.90
8939;DHT22;4504;48.810;9.172;2022-11-20T01:08:29;7.30;99.90
8939;DHT22;4504;48.810;9.172;2022-11-20T01:10:59;7.20;99.90
8939;DHT22;4504;48.810;9.172;2022-11-20T01:13:26;7.20;99.90
8939;DHT22;4504;48.810;9.172;2022-11-20T01:16:09;7.20;99.90
8939;DHT22;4504;48.810;9.172;2022-11-20T01:18:37;7.30;99.90
8939;DHT22;4504;48.810;9.172;2022-11-20T01:21:06;7.20;99.90
8939;DHT22;4504;48.810;9.172;2022-11-20T01:23:36;7.20;99.90
8939;DHT22;4504;48.810;9.172;2022-11-20T01:26:04;7.20;99.90
8939;DHT22;4504;48.810;9.172;2022-11-20T01:28:32;7.20;99.90
8939;DHT22;4504;48.810;9.172;2022-11-20T01:30:59;7.20;99.90
8939;DHT22;4504;48.810;9.172;2022-11-20T01:33:28;7.20;99.90
8939;DHT22;4504;48.810;9.172;2022-11-20T01:36:03;7.20;99.90
8939;DHT22;4504;48.810;9.172;2022-11-20T01:38:31;7.20;99.90
8939;DHT22;4504;48.810;9.172;2022-11-20T01:40:58;7.30;99.90
8939;DHT22;4504;48.810;9.172;2022-11-20T01:43:25;7.20;99.90
8939;DHT22;4504;48.810;9.172;2022-11-20T01:46:01;7.20;99.90
8939;DHT22;4504;48.810;9.172;2022-11-20T01:48:34;7.20;99.90
8939;DHT22;4504;48.810;9.172;2022-11-20T01:51:03;7.20;99.90
8939;DHT22;4504;48.810;9.172;2022-11-20T01:53:33;7.20;99.90
8939;DHT22;4504;48.810;9.172;2022-11-20T01:56:03;7.10;99.90
8939;DHT22;4504;48.810;9.172;2022-11-20T01:58:35;7.10;99.90
8939;DHT22;4504;48.810;9.172;2022-11-20T02:01:04;7.10;99.90
8939;DHT22;4504;48.810;9.172;2022-11-20T02:03:33;7.00;99.90
8939;DHT22;4504;48.810;9.172;2022-11-20T02:06:04;7.00;99.90
8939;DHT22;4504;48.810;9.172;2022-11-20T02:08:32;7.00;99.90
8939;DHT22;4504;48.810;9.172;2022-11-20T02:10:59;7.00;99.90
8939;DHT22;4504;48.810;9.172;2022-11-20T02:13:27;7.00;99.90
8939;DHT22;4504;48.810;9.172;2022-11-20T02:16:20;7.00;99.90
8939;DHT22;4504;48.810;9.172;2022-11-20T02:18:50;6.90;99.90
8939;DHT22;4504;48.810;9.172;2022-11-20T02:21:33;6.90;99.90
8939;DHT22;4504;48.810;9.172;2022-11-20T02:24:04;6.90;99.90
8939;DHT22;4504;48.810;9.172;2022-11-20T02:26:38;6.80;99.90
8939;DHT22;4504;48.810;9.172;2022-11-20T02:29:06;6.90;99.90
8939;DHT22;4504;48.810;9.172;2022-11-20T02:31:37;6.90;99.90
8939;DHT22;4504;48.810;9.172;2022-11-20T02:34:05;6.90;99.90
8939;DHT22;4504;48.810;9.172;2022-11-20T02:36:34;6.90;99.90
8939;DHT22;4504;48.810;9.172;2022-11-20T02:39:03;6.90;99.90
8939;DHT22;4504;48.810;9.172;2022-11-20T02:41:33;6.90;99.90
8939;DHT22;4504;48.810;9.172;2022-11-20T02:44:00;6.90;99.90
8939;DHT22;4504;48.810;9.172;2022-11-20T02:46:27;6.90;99.90
8939;DHT22;4504;48.810;9.172;2022-11-20T02:48:55;6.80;99.90
8939;DHT22;4504;48.810;9.172;2022-11-20T02:51:22;6.80;99.90
8939;DHT22;4504;48.810;9.172;2022-11-20T02:53:49;6.80;99.90
8939;DHT22;4504;48.810;9.172;2022-11-20T02:56:18;6.80;99.90
8939;DHT22;4504;48.810;9.172;2022-11-20T02:58:46;6.80;99.90
8939;DHT22;4504;48.810;9.172;2022-11-20T03:01:13;6.80;99.90
8939;DHT22;4504;48.810;9.172;2022-11-20T03:03:40;6.80;99.90
8939;DHT22;4504;48.810;9.172;2022-11-20T03:06:07;7.00;99.90
8939;DHT22;4504;48.810;9.172;2022-11-20T03:08:35;6.90;99.90
8939;DHT22;4504;48.810;9.172;2022-11-20T03:11:03;7.00;99.90
8939;DHT22;4504;48.810;9.172;2022-11-20T03:13:32;6.90;99.90
8939;DHT22;4504;48.810;9.172;2022-11-20T03:16:06;6.90;99.90
8939;DHT22;4504;48.810;9.172;2022-11-20T03:18:33;6.90;99.90
8939;DHT22;4504;48.810;9.172;2022-11-20T03:21:00;6.80;99.90
8939;DHT22;4504;48.810;9.172;2022-11-20T03:23:29;6.80;99.90
8939;DHT22;4504;48.810;9.172;2022-11-20T03:26:06;6.80;99.90
8939;DHT22;4504;48.810;9.172;2022-11-20T03:28:34;6.80;99.90
8939;DHT22;4504;48.810;9.172;2022-11-20T03:31:05;6.80;99.90
8939;DHT22;4504;48.810;9.172;2022-11-20T03:33:32;6.80;99.90
8939;DHT22;4504;48.810;9.172;2022-11-20T03:36:01;7.00;99.90
8939;DHT22;4504;48.810;9.172;2022-11-20T03:38:29;6.80;99.90
8939;DHT22;4504;48.810;9.172;2022-11-20T03:40:59;6.90;99.90
8939;DHT22;4504;48.810;9.172;2022-11-20T03:43:27;6.90;99.90
8939;DHT22;4504;48.810;9.172;2022-11-20T03:45:56;7.00;99.90
8939;DHT22;4504;48.810;9.172;2022-11-20T03:48:23;6.80;99.90
8939;DHT22;4504;48.810;9.172;2022-11-20T03:50:50;6.80;99.90
8939;DHT22;4504;48.810;9.172;2022-11-20T03:53:18;6.90;99.90
8939;DHT22;4504;48.810;9.172;2022-11-20T03:55:45;7.00;99.90
8939;DHT22;4504;48.810;9.172;2022-11-20T03:58:12;6.90;99.90
8939;DHT22;4504;48.810;9.172;2022-11-20T04:00:39;6.90;99.90
8939;DHT22;4504;48.810;9.172;2022-11-20T04:03:07;6.90;99.90
8939;DHT22;4504;48.810;9.172;2022-11-20T04:05:34;6.90;99.90
8939;DHT22;4504;48.810;9.172;2022-11-20T04:08:01;7.00;99.90
8939;DHT22;4504;48.810;9.172;2022-11-20T04:10:28;6.90;99.90
8939;DHT22;4504;48.810;9.172;2022-11-20T04:12:55;6.90;99.90
8939;DHT22;4504;48.810;9.172;2022-11-20T04:15:22;6.80;99.90
8939;DHT22;4504;48.810;9.172;2022-11-20T04:17:49;6.90;99.90
8939;DHT22;4504;48.810;9.172;2022-11-20T04:20:18;6.80;99.90
8939;DHT22;4504;48.810;9.172;2022-11-20T04:22:45;6.80;99.90
8939;DHT22;4504;48.810;9.172;2022-11-20T04:25:12;6.80;99.90
8939;DHT22;4504;48.810;9.172;2022-11-20T04:27:39;6.80;99.90
8939;DHT22;4504;48.810;9.172;2022-11-20T04:30:07;6.80;99.90
8939;DHT22;4504;48.810;9.172;2022-11-20T04:32:34;6.70;99.90
8939;DHT22;4504;48.810;9.172;2022-11-20T04:35:01;6.90;99.90
8939;DHT22;4504;48.810;9.172;2022-11-20T04:37:30;6.80;99.90
8939;DHT22;4504;48.810;9.172;2022-11-20T04:39:57;6.90;99.90
8939;DHT22;4504;48.810;9.172;2022-11-20T04:42:24;6.80;99.90
8939;DHT22;4504;48.810;9.172;2022-11-20T04:44:57;6.70;99.90
8939;DHT22;4504;48.810;9.172;2022-11-20T04:47:24;6.80;99.90
8939;DHT22;4504;48.810;9.172;2022-11-20T04:49:51;6.70;99.90
8939;DHT22;4504;48.810;9.172;2022-11-20T04:52:18;6.70;99.90
8939;DHT22;4504;48.810;9.172;2022-11-20T04:54:47;6.90;99.90
8939;DHT22;4504;48.810;9.172;2022-11-20T04:57:15;6.70;99.90
8939;DHT22;4504;48.810;9.172;2022-11-20T04:59:42;6.70;99.90
8939;DHT22;4504;48.810;9.172;2022-11-20T05:02:09;6.70;99.90
8939;DHT22;4504;48.810;9.172;2022-11-20T05:04:36;6.90;99.90
8939;DHT22;4504;48.810;9.172;2022-11-20T05:07:03;6.70;99.90
8939;DHT22;4504;48.810;9.172;2022-11-20T05:09:31;6.70;99.90
8939;DHT22;4504;48.810;9.172;2022-11-20T05:11:59;6.70;99.90
8939;DHT22;4504;48.810;9.172;2022-11-20T05:14:26;6.70;99.90
8939;DHT22;4504;48.810;9.172;2022-11-20T05:16:53;6.70;99.90
8939;DHT22;4504;48.810;9.172;2022-11-20T05:19:20;6.70;99.90
8939;DHT22;4504;48.810;9.172;2022-11-20T05:21:47;6.80;99.90
8939;DHT22;4504;48.810;9.172;2022-11-20T05:24:14;6.70;99.90
8939;DHT22;4504;48.810;9.172;2022-11-20T05:26:41;6.70;99.90
8939;DHT22;4504;48.810;9.172;2022-11-20T05:29:11;6.70;99.90
8939;DHT22;4504;48.810;9.172;2022-11-20T05:31:39;6.70;99.90
8939;DHT22;4504;48.810;9.172;2022-11-20T05:34:07;6.70;99.90
8939;DHT22;4504;48.810;9.172;2022-11-20T05:36:34;6.70;99.90
8939;DHT22;4504;48.810;9.172;2022-11-20T05:39:01;6.70;99.90
8939;DHT22;4504;48.810;9.172;2022-11-20T05:41:28;6.70;99.90
8939;DHT22;4504;48.810;9.172;2022-11-20T05:43:56;6.70;99.90
8939;DHT22;4504;48.810;9.172;2022-11-20T05:46:25;6.70;99.90
8939;DHT22;4504;48.810;9.172;2022-11-20T05:48:52;6.80;99.90
8939;DHT22;4504;48.810;9.172;2022-11-20T05:51:19;6.80;99.90
8939;DHT22;4504;48.810;9.172;2022-11-20T05:53:46;6.80;99.90
8939;DHT22;4504;48.810;9.172;2022-11-20T05:56:16;6.80;99.90
8939;DHT22;4504;48.810;9.172;2022-11-20T05:58:43;6.90;99.90
8939;DHT22;4504;48.810;9.172;2022-11-20T06:01:12;6.80;99.90
8939;DHT22;4504;48.810;9.172;2022-11-20T06:03:42;6.80;99.90
8939;DHT22;4504;48.810;9.172;2022-11-20T06:06:12;7.00;99.90
8939;DHT22;4504;48.810;9.172;2022-11-20T06:08:39;6.90;99.90
8939;DHT22;4504;48.810;9.172;2022-11-20T06:11:09;7.10;99.90
8939;DHT22;4504;48.810;9.172;2022-11-20T06:13:36;7.00;99.90
8939;DHT22;4504;48.810;9.172;2022-11-20T06:16:04;6.90;99.90
8939;DHT22;4504;48.810;9.172;2022-11-20T06:18:32;6.90;99.90
8939;DHT22;4504;48.810;9.172;2022-11-20T06:21:03;6.90;99.90
8939;DHT22;4504;48.810;9.172;2022-11-20T06:23:32;6.80;99.90
8939;DHT22;4504;48.810;9.172;2022-11-20T06:26:01;7.00;99.90
8939;DHT22;4504;48.810;9.172;2022-11-20T06:28:29;7.20;99.90
8939;DHT22;4504;48.810;9.172;2022-11-20T06:30:56;7.00;99.90
8939;DHT22;4504;48.810;9.172;2022-11-20T06:33:23;7.00;99.90
8939;DHT22;4504;48.810;9.172;2022-11-20T06:35:51;7.00;99.90
8939;DHT22;4504;48.810;9.172;2022-11-20T06:38:19;6.90;99.90
8939;DHT22;4504;48.810;9.172;2022-11-20T06:40:46;7.00;99.90
8939;DHT22;4504;48.810;9.172;2022-11-20T06:43:13;7.00;99.90
8939;DHT22;4504;48.810;9.172;2022-11-20T06:45:40;7.00;99.90
8939;DHT22;4504;48.810;9.172;2022-11-20T06:48:07;7.00;99.90
8939;DHT22;4504;48.810;9.172;2022-11-20T06:50:36;7.00;99.90
8939;DHT22;4504;48.810;9.172;2022-11-20T06:53:04;7.10;99.90
8939;DHT22;4504;48.810;9.172;2022-11-20T06:55:33;7.00;99.90
8939;DHT22;4504;48.810;9.172;2022-11-20T06:58:00;7.00;99.90
8939;DHT22;4504;48.810;9.172;2022-11-20T07:00:28;7.00;99.90
8939;DHT22;4504;48.810;9.172;2022-11-20T07:02:55;7.00;99.90
8939;DHT22;4504;48.810;9.172;2022-11-20T07:05:22;7.00;99.90
8939;DHT22;4504;48.810;9.172;2022-11-20T07:07:49;6.90;99.90
8939;DHT22;4504;48.810;9.172;2022-11-20T07:10:16;7.10;99.90
8939;DHT22;4504;48.810;9.172;2022-11-20T07:12:50;6.90;99.90
8939;DHT22;4504;48.810;9.172;2022-11-20T07:15:17;6.90;99.90
8939;DHT22;4504;48.810;9.172;2022-11-20T07:17:44;7.00;99.90
8939;DHT22;4504;48.810;9.172;2022-11-20T07:20:12;6.90;99.90
8939;DHT22;4504;48.810;9.172;2022-11-20T07:22:39;6.90;99.90
8939;DHT22;4504;48.810;9.172;2022-11-20T07:25:07;6.90;99.90
8939;DHT22;4504;48.810;9.172;2022-11-20T07:27:35;6.90;99.90
8939;DHT22;4504;48.810;9.172;2022-11-20T07:30:04;7.00;99.90
8939;DHT22;4504;48.810;9.172;2022-11-20T07:32:32;7.00;99.90
8939;DHT22;4504;48.810;9.172;2022-11-20T07:34:59;7.00;99.90
8939;DHT22;4504;48.810;9.172;2022-11-20T07:37:26;7.10;99.90
8939;DHT22;4504;48.810;9.172;2022-11-20T07:39:53;7.00;99.90
8939;DHT22;4504;48.810;9.172;2022-11-20T07:42:20;7.20;99.90
8939;DHT22;4504;48.810;9.172;2022-11-20T07:44:51;7.10;99.90
8939;DHT22;4504;48.810;9.172;2022-11-20T07:47:19;7.20;99.90
8939;DHT22;4504;48.810;9.172;2022-11-20T07:49:47;7.20;99.90
8939;DHT22;4504;48.810;9.172;2022-11-20T07:52:14;7.20;99.90
8939;DHT22;4504;48.810;9.172;2022-11-20T07:54:41;7.30;99.90
8939;DHT22;4504;48.810;9.172;2022-11-20T07:57:08;7.20;99.90
8939;DHT22;4504;48.810;9.172;2022-11-20T07:59:35;7.20;99.90
8939;DHT22;4504;48.810;9.172;2022-11-20T08:02:02;7.20;99.90
8939;DHT22;4504;48.810;9.172;2022-11-20T08:04:30;7.20;99.90
8939;DHT22;4504;48.810;9.172;2022-11-20T08:06:58;7.40;99.90
8939;DHT22;4504;48.810;9.172;2022-11-20T08:09:25;7.40;99.90
8939;DHT22;4504;48.810;9.172;2022-11-20T08:11:52;7.40;99.90
8939;DHT22;4504;48.810;9.172;2022-11-20T08:14:37;7.30;99.90
8939;DHT22;4504;48.810;9.172;2022-11-20T08:17:04;7.30;99.90
8939;DHT22;4504;48.810;9.172;2022-11-20T08:19:32;7.30;99.90
8939;DHT22;4504;48.810;9.172;2022-11-20T08:21:59;7.50;99.90
8939;DHT22;4504;48.810;9.172;2022-11-20T08:24:26;7.40;99.90
8939;DHT22;4504;48.810;9.172;2022-11-20T08:26:53;7.50;99.90
8939;DHT22;4504;48.810;9.172;2022-11-20T08:29:20;7.40;99.90
8939;DHT22;4504;48.810;9.172;2022-11-20T08:31:48;7.40;99.90
8939;DHT22;4504;48.810;9.172;2022-11-20T08:34:15;7.40;99.90
8939;DHT22;4504;48.810;9.172;2022-11-20T08:36:44;7.40;99.90
8939;DHT22;4504;48.810;9.172;2022-11-20T08:39:11;7.40;99.90
8939;DHT22;4504;48.810;9.172;2022-11-20T08:41:39;7.50;99.90
8939;DHT22;4504;48.810;9.172;2022-11-20T08:44:07;7.60;99.90
8939;DHT22;4504;48.810;9.172;2022-11-20T08:46:35;7.60;99.90
8939;DHT22;4504;48.810;9.172;2022-11-20T08:49:03;7.70;99.90
8939;DHT22;4504;48.810;9.172;2022-11-20T08:51:31;7.70;99.90
8939;DHT22;4504;48.810;9.172;2022-11-20T08:54:00;7.80;99.90
8939;DHT22;4504;48.810;9.172;2022-11-20T08:56:27;7.80;99.90
8939;DHT22;4504;48.810;9.172;2022-11-20T08:58:54;7.80;99.90
8939;DHT22;4504;48.810;9.172;2022-11-20T09:01:23;8.00;99.90
8939;DHT22;4504;48.810;9.172;2022-11-20T09:03:50;7.80;99.90
8939;DHT22;4504;48.810;9.172;2022-11-20T09:06:17;7.90;99.90
8939;DHT22;4504;48.810;9.172;2022-11-20T09:08:44;8.00;99.90
8939;DHT22;4504;48.810;9.172;2022-11-20T09:11:13;8.00;99.90
8939;DHT22;4504;48.810;9.172;2022-11-20T09:13:40;8.00;99.90
8939;DHT22;4504;48.810;9.172;2022-11-20T09:16:08;8.00;99.90
8939;DHT22;4504;48.810;9.172;2022-11-20T09:18:36;8.00;99.90
8939;DHT22;4504;48.810;9.172;2022-11-20T09:21:06;8.10;99.90
8939;DHT22;4504;48.810;9.172;2022-11-20T09:23:35;8.10;99.90
8939;DHT22;4504;48.810;9.172;2022-11-20T09:26:03;8.30;99.90
8939;DHT22;4504;48.810;9.172;2022-11-20T09:28:32;8.20;99.90
8939;DHT22;4504;48.810;9.172;2022-11-20T09:30:59;8.10;99.90
8939;DHT22;4504;48.810;9.172;2022-11-20T09:33:26;8.20;99.90
8939;DHT22;4504;48.810;9.172;2022-11-20T09:35:53;8.30;99.90
8939;DHT22;4504;48.810;9.172;2022-11-20T09:38:20;8.30;99.90
8939;DHT22;4504;48.810;9.172;2022-11-20T09:40:56;8.20;99.90
8939;DHT22;4504;48.810;9.172;2022-11-20T09:43:29;8.10;99.90
8939;DHT22;4504;48.810;9.172;2022-11-20T09:46:05;8.20;99.90
8939;DHT22;4504;48.810;9.172;2022-11-20T09:48:45;8.10;99.90
8939;DHT22;4504;48.810;9.172;2022-11-20T09:51:22;8.10;99.90
8939;DHT22;4504;48.810;9.172;2022-11-20T09:54:02;8.20;99.90
8939;DHT22;4504;48.810;9.172;2022-11-20T09:56:33;8.20;99.90
8939;DHT22;4504;48.810;9.172;2022-11-20T09:59:04;8.10;99.90
8939;DHT22;4504;48.810;9.172;2022-11-20T10:01:35;8.10;99.90
8939;DHT22;4504;48.810;9.172;2022-11-20T10:04:10;8.10;99.90
8939;DHT22;4504;48.810;9.172;2022-11-20T10:06:41;8.10;99.90
8939;DHT22;4504;48.810;9.172;2022-11-20T10:09:18;8.00;99.90
8939;DHT22;4504;48.810;9.172;2022-11-20T10:11:56;8.00;99.90
8939;DHT22;4504;48.810;9.172;2022-11-20T10:14:34;8.10;99.90
8939;DHT22;4504;48.810;9.172;2022-11-20T10:17:15;8.10;99.90
8939;DHT22;4504;48.810;9.172;2022-11-20T10:19:56;8.00;99.90
8939;DHT22;4504;48.810;9.172;2022-11-20T10:22:47;8.00;99.90
8939;DHT22;4504;48.810;9.172;2022-11-20T10:25:18;8.00;99.90
8939;DHT22;4504;48.810;9.172;2022-11-20T10:27:58;8.00;99.90
8939;DHT22;4504;48.810;9.172;2022-11-20T10:30:27;8.00;99.90
8939;DHT22;4504;48.810;9.172;2022-11-20T10:33:01;8.00;99.90
8939;DHT22;4504;48.810;9.172;2022-11-20T10:35:35;8.00;99.90
8939;DHT22;4504;48.810;9.172;2022-11-20T10:38:09;7.90;99.90
8939;DHT22;4504;48.810;9.172;2022-11-20T10:40:42;7.80;99.90
8939;DHT22;4504;48.810;9.172;2022-11-20T10:43:12;7.60;99.90
8939;DHT22;4504;48.810;9.172;2022-11-20T10:45:48;7.70;99.90
8939;DHT22;4504;48.810;9.172;2022-11-20T10:48:21;7.60;99.90
8939;DHT22;4504;48.810;9.172;2022-11-20T10:51:10;7.60;99.90
8939;DHT22;4504;48.810;9.172;2022-11-20T10:53:54;7.50;99.90
8939;DHT22;4504;48.810;9.172;2022-11-20T10:56:27;7.60;99.90
8939;DHT22;4504;48.810;9.172;2022-11-20T10:59:19;7.50;99.90
8939;DHT22;4504;48.810;9.172;2022-11-20T11:01:51;7.40;99.90
8939;DHT22;4504;48.810;9.172;2022-11-20T11:04:30;7.40;99.90
8939;DHT22;4504;48.810;9.172;2022-11-20T11:07:07;7.50;99.90
8939;DHT22;4504;48.810;9.172;2022-11-20T11:09:39;7.40;99.90
8939;DHT22;4504;48.810;9.172;2022-11-20T11:12:08;7.40;99.90
8939;DHT22;4504;48.810;9.172;2022-11-20T11:14:43;7.50;99.90
8939;DHT22;4504;48.810;9.172;2022-11-20T11:17:21;7.50;99.90
8939;DHT22;4504;48.810;9.172;2022-11-20T11:19:59;7.50;99.90
8939;DHT22;4504;48.810;9.172;2022-11-20T11:22:28;7.40;99.90
8939;DHT22;4504;48.810;9.172;2022-11-20T11:24:57;7.40;99.90
8939;DHT22;4504;48.810;9.172;2022-11-20T11:27:24;7.50;99.90
8939;DHT22;4504;48.810;9.172;2022-11-20T11:30:02;7.50;99.90
8939;DHT22;4504;48.810;9.172;2022-11-20T11:32:30;7.70;99.90
8939;DHT22;4504;48.810;9.172;2022-11-20T11:35:04;7.70;99.90
8939;DHT22;4504;48.810;9.172;2022-11-20T11:37:34;7.80;99.90
8939;DHT22;4504;48.810;9.172;2022-11-20T11:40:03;7.70;99.90
8939;DHT22;4504;48.810;9.172;2022-11-20T11:42:31;8.00;99.90
8939;DHT22;4504;48.810;9.172;2022-11-20T11:44:59;8.00;99.90
8939;DHT22;4504;48.810;9.172;2022-11-20T11:47:33;8.10;99.90
8939;DHT22;4504;48.810;9.172;2022-11-20T11:50:17;8.10;99.90
8939;DHT22;4504;48.810;9.172;2022-11-20T11:53:04;8.20;99.90
8939;DHT22;4504;48.810;9.172;2022-11-20T11:55:36;8.30;99.90
8939;DHT22;4504;48.810;9.172;2022-11-20T11:58:11;8.40;99.90
8939;DHT22;4504;48.810;9.172;2022-11-20T12:00:47;8.50;99.90
8939;DHT22;4504;48.810;9.172;2022-11-20T12:03:20;8.50;99.90
8939;DHT22;4504;48.810;9.172;2022-11-20T12:05:55;8.50;99.90
8939;DHT22;4504;48.810;9.172;2022-11-20T12:08:27;8.70;99.90
8939;DHT22;4504;48.810;9.172;2022-11-20T12:10:58;8.60;99.90
8939;DHT22;4504;48.810;9.172;2022-11-20T12:13:37;8.70;99.90
8939;DHT22;4504;48.810;9.172;2022-11-20T12:16:12;8.80;99.90
8939;DHT22;4504;48.810;9.172;2022-11-20T12:18:41;8.90;99.90
8939;DHT22;4504;48.810;9.172;2022-11-20T12:21:19;8.90;99.90
8939;DHT22;4504;48.810;9.172;2022-11-20T12:26:54;9.10;99.90
8939;DHT22;4504;48.810;9.172;2022-11-20T12:29:30;9.10;99.90
8939;DHT22;4504;48.810;9.172;2022-11-20T12:32:15;9.10;99.90
8939;DHT22;4504;48.810;9.172;2022-11-20T12:34:58;9.10;99.90
8939;DHT22;4504;48.810;9.172;2022-11-20T12:37:38;9.10;99.90
8939;DHT22;4504;48.810;9.172;2022-11-20T12:40:22;9.40;99.90
8939;DHT22;4504;48.810;9.172;2022-11-20T12:43:03;9.20;99.90
8939;DHT22;4504;48.810;9.172;2022-11-20T12:46:11;9.20;99.90
8939;DHT22;4504;48.810;9.172;2022-11-20T12:48:47;9.30;99.90
8939;DHT22;4504;48.810;9.172;2022-11-20T12:51:28;9.40;99.90
8939;DHT22;4504;48.810;9.172;2022-11-20T12:56:57;9.60;99.90
8939;DHT22;4504;48.810;9.172;2022-11-20T12:59:38;9.70;99.90
8939;DHT22;4504;48.810;9.172;2022-11-20T13:02:22;9.90;99.90
8939;DHT22;4504;48.810;9.172;2022-11-20T13:05:03;9.80;99.90
8939;DHT22;4504;48.810;9.172;2022-11-20T13:07:35;9.80;99.90
8939;DHT22;4504;48.810;9.172;2022-11-20T13:10:06;9.90;99.90
8939;DHT22;4504;48.810;9.172;2022-11-20T13:12:44;10.10;99.90
8939;DHT22;4504;48.810;9.172;2022-11-20T13:15:22;10.10;99.90
8939;DHT22;4504;48.810;9.172;2022-11-20T13:17:54;10.10;99.90
8939;DHT22;4504;48.810;9.172;2022-11-20T13:20:22;10.10;99.90
8939;DHT22;4504;48.810;9.172;2022-11-20T13:22:51;10.10;99.90
8939;DHT22;4504;48.810;9.172;2022-11-20T13:25:25;10.10;99.90
8939;DHT22;4504;48.810;9.172;2022-11-20T13:27:53;10.10;99.90
8939;DHT22;4504;48.810;9.172;2022-11-20T13:30:22;10.10;99.90
8939;DHT22;4504;48.810;9.172;2022-11-20T13:32:52;10.00;99.90
8939;DHT22;4504;48.810;9.172;2022-11-20T13:35:28;10.00;99.90
8939;DHT22;4504;48.810;9.172;2022-11-20T13:38:05;10.00;99.90
8939;DHT22;4504;48.810;9.172;2022-11-20T13:40:36;10.00;99.90
8939;DHT22;4504;48.810;9.172;2022-11-20T13:43:21;10.00;99.90
8939;DHT22;4504;48.810;9.172;2022-11-20T13:46:00;10.00;99.90
8939;DHT22;4504;48.810;9.172;2022-11-20T13:48:31;9.90;99.90
8939;DHT22;4504;48.810;9.172;2022-11-20T13:51:10;10.50;99.90
8939;DHT22;4504;48.810;9.172;2022-11-20T13:54:05;9.80;99.90
8939;DHT22;4504;48.810;9.172;2022-11-20T13:56:48;9.70;99.90
8939;DHT22;4504;48.810;9.172;2022-11-20T13:59:32;9.70;99.90
8939;DHT22;4504;48.810;9.172;2022-11-20T14:02:10;9.70;99.90
8939;DHT22;4504;48.810;9.172;2022-11-20T14:04:42;9.60;99.90
8939;DHT22;4504;48.810;9.172;2022-11-20T14:07:10;9.60;99.90
8939;DHT22;4504;48.810;9.172;2022-11-20T14:09:38;9.60;99.90
8939;DHT22;4504;48.810;9.172;2022-11-20T14:12:16;9.60;99.90
8939;DHT22;4504;48.810;9.172;2022-11-20T14:14:49;9.60;99.90
8939;DHT22;4504;48.810;9.172;2022-11-20T14:17:20;9.60;99.90
8939;DHT22;4504;48.810;9.172;2022-11-20T14:19:49;9.60;99.90
8939;DHT22;4504;48.810;9.172;2022-11-20T14:22:19;9.50;99.90
8939;DHT22;4504;48.810;9.172;2022-11-20T14:24:48;9.40;99.90
8939;DHT22;4504;48.810;9.172;2022-11-20T14:27:19;9.40;99.90
8939;DHT22;4504;48.810;9.172;2022-11-20T14:29:55;9.40;99.90
8939;DHT22;4504;48.810;9.172;2022-11-20T14:32:26;9.50;99.90
8939;DHT22;4504;48.810;9.172;2022-11-20T14:34:58;9.50;99.90
8939;DHT22;4504;48.810;9.172;2022-11-20T14:37:32;9.30;99.90
8939;DHT22;4504;48.810;9.172;2022-11-20T14:40:00;9.10;99.90
8939;DHT22;4504;48.810;9.172;2022-11-20T14:42:29;9.20;99.90
8939;DHT22;4504;48.810;9.172;2022-11-20T14:44:58;9.20;99.90
8939;DHT22;4504;48.810;9.172;2022-11-20T14:47:27;9.20;99.90
8939;DHT22;4504;48.810;9.172;2022-11-20T14:49:57;9.20;99.90
8939;DHT22;4504;48.810;9.172;2022-11-20T14:52:25;9.10;99.90
8939;DHT22;4504;48.810;9.172;2022-11-20T14:54:55;9.30;99.90
8939;DHT22;4504;48.810;9.172;2022-11-20T14:57:25;9.10;99.90
8939;DHT22;4504;48.810;9.172;2022-11-20T15:00:04;9.10;99.90
8939;DHT22;4504;48.810;9.172;2022-11-20T15:02:31;9.10;99.90
8939;DHT22;4504;48.810;9.172;2022-11-20T15:05:00;9.10;99.90
8939;DHT22;4504;48.810;9.172;2022-11-20T15:07:30;9.10;99.90
8939;DHT22;4504;48.810;9.172;2022-11-20T15:10:06;9.00;99.90
8939;DHT22;4504;48.810;9.172;2022-11-20T15:12:34;9.00;99.90
8939;DHT22;4504;48.810;9.172;2022-11-20T15:15:05;9.00;99.90
8939;DHT22;4504;48.810;9.172;2022-11-20T15:17:37;9.00;99.90
8939;DHT22;4504;48.810;9.172;2022-11-20T15:20:11;9.10;99.90
8939;DHT22;4504;48.810;9.172;2022-11-20T15:22:40;9.00;99.90
8939;DHT22;4504;48.810;9.172;2022-11-20T15:25:12;8.90;99.90
8939;DHT22;4504;48.810;9.172;2022-11-20T15:27:39;8.90;99.90
8939;DHT22;4504;48.810;9.172;2022-11-20T15:30:12;9.10;99.90
8939;DHT22;4504;48.810;9.172;2022-11-20T15:32:40;8.90;99.90
8939;DHT22;4504;48.810;9.172;2022-11-20T15:35:08;8.90;99.90
8939;DHT22;4504;48.810;9.172;2022-11-20T15:37:35;8.90;99.90
8939;DHT22;4504;48.810;9.172;2022-11-20T15:40:03;8.90;99.90
8939;DHT22;4504;48.810;9.172;2022-11-20T15:42:33;8.80;99.90
8939;DHT22;4504;48.810;9.172;2022-11-20T15:45:01;8.80;99.90
8939;DHT22;4504;48.810;9.172;2022-11-20T15:47:33;8.80;99.90
8939;DHT22;4504;48.810;9.172;2022-11-20T15:50:01;8.80;99.90
8939;DHT22;4504;48.810;9.172;2022-11-20T15:52:28;8.80;99.90
8939;DHT22;4504;48.810;9.172;2022-11-20T15:54:55;8.80;99.90
8939;DHT22;4504;48.810;9.172;2022-11-20T15:57:22;8.70;99.90
8939;DHT22;4504;48.810;9.172;2022-11-20T15:59:49;8.70;99.90
8939;DHT22;4504;48.810;9.172;2022-11-20T16:02:16;8.70;99.90
8939;DHT22;4504;48.810;9.172;2022-11-20T16:04:44;8.70;99.90
8939;DHT22;4504;48.810;9.172;2022-11-20T16:07:11;8.80;99.90
8939;DHT22;4504;48.810;9.172;2022-11-20T16:09:39;8.80;99.90
8939;DHT22;4504;48.810;9.172;2022-11-20T16:12:08;8.70;99.90
8939;DHT22;4504;48.810;9.172;2022-11-20T16:14:55;8.60;99.90
8939;DHT22;4504;48.810;9.172;2022-11-20T16:17:40;8.60;99.90
8939;DHT22;4504;48.810;9.172;2022-11-20T16:20:13;8.70;99.90
8939;DHT22;4504;48.810;9.172;2022-11-20T16:22:40;8.50;99.90
8939;DHT22;4504;48.810;9.172;2022-11-20T16:25:07;8.50;99.90
8939;DHT22;4504;48.810;9.172;2022-11-20T16:27:34;8.50;99.90
8939;DHT22;4504;48.810;9.172;2022-11-20T16:30:01;8.60;99.90
8939;DHT22;4504;48.810;9.172;2022-11-20T16:32:28;8.60;99.90
8939;DHT22;4504;48.810;9.172;2022-11-20T16:34:55;8.50;99.90
8939;DHT22;4504;48.810;9.172;2022-11-20T16:37:24;8.50;99.90
8939;DHT22;4504;48.810;9.172;2022-11-20T16:39:51;8.60;99.90
8939;DHT22;4504;48.810;9.172;2022-11-20T16:42:18;8.50;99.90
8939;DHT22;4504;48.810;9.172;2022-11-20T16:44:45;8.50;99.90